createdAt,value
2018-12-14T00:00:12.666Z,0
2018-12-14T00:03:40.551Z,0
2018-12-14T00:07:08.449Z,0
2018-12-14T00:10:36.322Z,0
2018-12-14T00:14:04.222Z,0
2018-12-14T00:17:32.125Z,0
2018-12-14T00:21:00.019Z,0
2018-12-14T00:24:27.899Z,0
2018-12-14T00:27:55.794Z,0
2018-12-14T00:31:23.685Z,0
2018-12-14T00:34:51.568Z,0
2018-12-14T00:38:19.472Z,0
2018-12-14T00:41:51.825Z,0
2018-12-14T00:45:18.197Z,0
2018-12-14T00:48:46.081Z,0
2018-12-14T00:52:13.963Z,0
2018-12-14T00:55:41.832Z,0
2018-12-14T00:59:09.719Z,0
2018-12-14T01:02:37.600Z,0
2018-12-14T01:06:05.470Z,0
2018-12-14T01:09:33.353Z,0
2018-12-14T01:13:01.237Z,0
2018-12-14T01:16:29.105Z,0
2018-12-14T01:19:56.984Z,0
2018-12-14T01:23:24.874Z,0
2018-12-14T01:26:52.852Z,0
2018-12-14T01:30:20.721Z,0
2018-12-14T01:33:48.602Z,0
2018-12-14T01:37:16.494Z,0
2018-12-14T01:40:44.359Z,0
2018-12-14T01:44:12.246Z,0
2018-12-14T01:47:40.118Z,0
2018-12-14T01:51:07.987Z,0
2018-12-14T01:54:35.878Z,0
2018-12-14T01:58:03.761Z,0
2018-12-14T02:01:31.630Z,0
2018-12-14T02:04:59.523Z,0
2018-12-14T02:08:27.406Z,0
2018-12-14T02:11:55.274Z,0
2018-12-14T02:15:23.158Z,0
2018-12-14T02:18:51.046Z,0
2018-12-14T02:22:18.928Z,0
2018-12-14T02:25:47.798Z,0
2018-12-14T02:29:15.679Z,0
2018-12-14T02:32:43.565Z,0
2018-12-14T02:36:11.439Z,0
2018-12-14T02:39:39.319Z,0
2018-12-14T02:43:07.230Z,0
2018-12-14T02:46:35.090Z,0
2018-12-14T02:50:02.958Z,0
2018-12-14T02:53:30.843Z,0
2018-12-14T02:56:58.726Z,0
2018-12-14T03:00:26.698Z,0
2018-12-14T03:03:54.566Z,0
2018-12-14T03:07:22.452Z,0
2018-12-14T03:10:50.340Z,0
2018-12-14T03:14:19.224Z,0
2018-12-14T03:17:47.113Z,0
2018-12-14T03:21:15.002Z,0
2018-12-14T03:24:42.872Z,0
2018-12-14T03:28:10.759Z,0
2018-12-14T03:31:38.640Z,0
2018-12-14T03:35:06.507Z,0
2018-12-14T03:38:34.396Z,0
2018-12-14T03:42:02.278Z,0
2018-12-14T03:45:30.161Z,0
2018-12-14T03:48:58.033Z,0
2018-12-14T03:52:25.929Z,0
2018-12-14T03:55:53.809Z,0
2018-12-14T03:59:21.680Z,0
2018-12-14T04:02:50.555Z,0
2018-12-14T04:06:18.449Z,0
2018-12-14T04:09:46.319Z,0
2018-12-14T04:13:14.204Z,0
2018-12-14T04:16:42.086Z,0
2018-12-14T04:20:09.966Z,0
2018-12-14T04:23:37.834Z,0
2018-12-14T04:27:05.720Z,0
2018-12-14T04:30:33.607Z,0
2018-12-14T04:34:01.485Z,0
2018-12-14T04:37:29.363Z,0
2018-12-14T04:40:57.248Z,0
2018-12-14T04:44:26.110Z,0
2018-12-14T04:47:53.995Z,0
2018-12-14T04:51:21.875Z,0
2018-12-14T04:54:49.821Z,0
2018-12-14T04:58:17.690Z,0
2018-12-14T05:01:45.576Z,0
2018-12-14T05:05:13.466Z,0
2018-12-14T05:08:41.335Z,0
2018-12-14T05:12:09.227Z,0
2018-12-14T05:15:37.098Z,0
2018-12-14T05:19:04.988Z,0
2018-12-14T05:22:33.866Z,0
2018-12-14T05:26:01.745Z,0
2018-12-14T05:29:30.605Z,0
2018-12-14T05:32:58.527Z,0
2018-12-14T05:36:26.422Z,0
2018-12-14T05:39:54.310Z,0
2018-12-14T05:43:22.179Z,0
2018-12-14T05:46:51.054Z,0
2018-12-14T05:50:18.948Z,0
2018-12-14T05:53:46.815Z,0
2018-12-14T05:57:14.700Z,0
2018-12-14T06:00:42.582Z,0
2018-12-14T06:04:10.454Z,0
2018-12-14T06:07:39.325Z,0
2018-12-14T06:11:07.214Z,0
2018-12-14T06:14:35.081Z,0
2018-12-14T06:18:02.965Z,0
2018-12-14T06:21:30.855Z,0
2018-12-14T06:24:58.724Z,0
2018-12-14T06:28:26.617Z,0
2018-12-14T06:31:54.503Z,0
2018-12-14T06:35:22.387Z,0
2018-12-14T06:38:50.261Z,0
2018-12-14T06:42:18.146Z,0
2018-12-14T06:45:46.037Z,0
2018-12-14T06:49:13.910Z,0
2018-12-14T06:52:42.785Z,0
2018-12-14T06:56:10.668Z,0
2018-12-14T06:59:38.533Z,0
2018-12-14T07:03:06.421Z,0
2018-12-14T07:06:34.309Z,0
2018-12-14T07:10:02.188Z,0
2018-12-14T07:13:30.066Z,0
2018-12-14T07:16:57.948Z,0
2018-12-14T07:20:25.923Z,0
2018-12-14T07:23:53.794Z,0
2018-12-14T07:27:21.680Z,0
2018-12-14T07:30:50.549Z,0
2018-12-14T07:34:18.422Z,0
2018-12-14T07:37:46.306Z,0
2018-12-14T07:41:15.182Z,0
2018-12-14T07:44:43.176Z,0
2018-12-14T07:48:10.942Z,5.625
2018-12-14T07:51:38.825Z,5.625
2018-12-14T07:55:06.698Z,5.625
2018-12-14T07:58:34.581Z,5.625
2018-12-14T08:02:02.460Z,5.625
2018-12-14T08:05:31.327Z,5.625
2018-12-14T08:08:59.306Z,5.625
2018-12-14T08:12:27.196Z,11.25
2018-12-14T08:15:55.077Z,11.25
2018-12-14T08:19:22.950Z,11.25
2018-12-14T08:22:50.836Z,16.875
2018-12-14T08:26:18.731Z,22.5
2018-12-14T08:29:46.601Z,22.5
2018-12-14T08:33:14.520Z,22.5
2018-12-14T08:36:42.371Z,22.5
2018-12-14T08:40:10.238Z,22.5
2018-12-14T08:43:41.512Z,22.5
2018-12-14T08:47:08.978Z,22.5
2018-12-14T08:50:36.849Z,28.125
2018-12-14T08:54:04.743Z,22.5
2018-12-14T08:57:32.618Z,28.125
2018-12-14T09:01:00.510Z,28.125
2018-12-14T09:04:28.378Z,28.125
2018-12-14T09:07:56.261Z,22.5
2018-12-14T09:11:24.143Z,22.5
2018-12-14T09:14:52.016Z,16.875
2018-12-14T09:18:19.902Z,16.875
2018-12-14T09:21:47.787Z,28.125
2018-12-14T09:25:15.660Z,28.125
2018-12-14T09:28:43.537Z,33.75
2018-12-14T09:32:11.426Z,39.375
2018-12-14T09:35:39.300Z,33.75
2018-12-14T09:39:07.191Z,28.125
2018-12-14T09:42:35.080Z,28.125
2018-12-14T09:46:02.966Z,28.125
2018-12-14T09:49:31.823Z,22.5
2018-12-14T09:52:59.715Z,33.75
2018-12-14T09:56:27.611Z,50.625
2018-12-14T09:59:55.489Z,50.625
2018-12-14T10:03:23.372Z,45
2018-12-14T10:06:51.258Z,73.125
2018-12-14T10:10:19.129Z,78.75
2018-12-14T10:13:48.233Z,84.375
2018-12-14T10:17:16.395Z,95.625
2018-12-14T10:20:44.271Z,95.625
2018-12-14T10:24:13.144Z,73.125
2018-12-14T10:27:41.104Z,61.875
2018-12-14T10:31:09.315Z,56.25
2018-12-14T10:34:37.182Z,67.5
2018-12-14T10:38:05.076Z,78.75
2018-12-14T10:41:32.964Z,84.375
2018-12-14T10:45:00.836Z,78.75
2018-12-14T10:48:28.735Z,90
2018-12-14T10:51:56.628Z,78.75
2018-12-14T10:55:24.505Z,61.875
2018-12-14T10:58:52.390Z,56.25
2018-12-14T11:02:20.281Z,50.625
2018-12-14T11:05:48.250Z,45
2018-12-14T11:09:16.188Z,50.625
2018-12-14T11:12:44.084Z,50.625
2018-12-14T11:16:11.977Z,45
2018-12-14T11:19:39.847Z,33.75
2018-12-14T11:23:07.749Z,22.5
2018-12-14T11:26:35.653Z,28.125
2018-12-14T11:30:03.524Z,28.125
2018-12-14T11:33:31.412Z,33.75
2018-12-14T11:37:00.300Z,33.75
2018-12-14T11:40:28.205Z,33.75
2018-12-14T11:43:56.090Z,33.75
2018-12-14T11:47:23.992Z,39.375
2018-12-14T11:50:51.894Z,45
2018-12-14T11:54:20.756Z,73.125
2018-12-14T11:57:48.642Z,95.625
2018-12-14T12:01:16.539Z,95.625
2018-12-14T12:04:44.409Z,61.875
2018-12-14T12:08:12.288Z,56.25
2018-12-14T12:11:40.176Z,50.625
2018-12-14T12:15:09.542Z,45
2018-12-14T12:18:36.922Z,39.375
2018-12-14T12:22:04.858Z,28.125
2018-12-14T12:25:32.721Z,28.125
2018-12-14T12:29:00.641Z,28.125
2018-12-14T12:32:28.569Z,28.125
2018-12-14T12:35:56.416Z,33.75
2018-12-14T12:39:25.337Z,33.75
2018-12-14T12:42:53.180Z,56.25
2018-12-14T12:46:21.056Z,50.625
2018-12-14T12:49:48.962Z,39.375
2018-12-14T12:53:16.857Z,33.75
2018-12-14T12:56:44.743Z,28.125
2018-12-14T13:00:12.614Z,22.5
2018-12-14T13:03:40.502Z,22.5
2018-12-14T13:07:08.402Z,16.875
2018-12-14T13:10:37.249Z,16.875
2018-12-14T13:14:05.200Z,22.5
2018-12-14T13:17:33.146Z,16.875
2018-12-14T13:21:01.057Z,16.875
2018-12-14T13:24:29.021Z,16.875
2018-12-14T13:27:56.954Z,16.875
2018-12-14T13:31:24.922Z,11.25
2018-12-14T13:34:52.915Z,11.25
2018-12-14T13:38:20.974Z,11.25
2018-12-14T13:41:48.977Z,16.875
2018-12-14T13:45:17.233Z,28.125
2018-12-14T13:48:45.119Z,33.75
2018-12-14T13:52:12.985Z,28.125
2018-12-14T13:55:42.326Z,22.5
2018-12-14T13:59:12.813Z,16.875
2018-12-14T14:02:42.217Z,11.25
2018-12-14T14:06:14.338Z,11.25
2018-12-14T14:09:43.489Z,11.25
2018-12-14T14:13:13.408Z,5.625
2018-12-14T14:16:43.995Z,5.625
2018-12-14T14:20:12.065Z,5.625
2018-12-14T14:23:39.977Z,5.625
2018-12-14T14:27:08.469Z,0
2018-12-14T14:30:38.017Z,0
2018-12-14T14:34:07.159Z,0
2018-12-14T14:37:35.610Z,0
2018-12-14T14:41:03.800Z,0
2018-12-14T14:44:31.726Z,0
2018-12-14T14:47:59.624Z,0
2018-12-14T14:51:27.643Z,0
2018-12-14T14:54:56.457Z,0
2018-12-14T14:58:24.398Z,0
2018-12-14T15:01:53.203Z,0
2018-12-14T15:05:21.192Z,0
2018-12-14T15:08:49.119Z,0
2018-12-14T15:12:17.762Z,0
2018-12-14T15:15:45.688Z,0
2018-12-14T15:19:13.818Z,0
2018-12-14T15:22:41.666Z,0
2018-12-14T15:26:09.603Z,0
2018-12-14T15:29:37.705Z,0
2018-12-14T15:33:05.653Z,0
2018-12-14T15:36:33.618Z,0
2018-12-14T15:40:01.568Z,0
2018-12-14T15:43:29.515Z,0
2018-12-14T15:46:58.448Z,0
2018-12-14T15:50:28.257Z,0
2018-12-14T15:53:57.973Z,0
2018-12-14T15:57:25.891Z,0
2018-12-14T16:00:53.795Z,0
2018-12-14T16:04:22.712Z,0
2018-12-14T16:07:51.489Z,0
2018-12-14T16:11:19.379Z,0
2018-12-14T16:14:48.365Z,0
2018-12-14T16:18:16.397Z,0
2018-12-14T16:21:44.382Z,0
2018-12-14T16:25:12.271Z,0
2018-12-14T16:28:40.182Z,0
2018-12-14T16:32:08.990Z,0
2018-12-14T16:35:36.866Z,0
2018-12-14T16:39:04.769Z,0
2018-12-14T16:42:32.691Z,0
2018-12-14T16:46:00.603Z,0
2018-12-14T16:49:28.499Z,0
2018-12-14T16:52:56.403Z,0
2018-12-14T16:56:24.296Z,0
2018-12-14T16:59:53.213Z,0
2018-12-14T17:03:21.121Z,0
2018-12-14T17:06:49.005Z,0
2018-12-14T17:10:16.896Z,0
2018-12-14T17:13:44.795Z,0
2018-12-14T17:17:12.719Z,0
2018-12-14T17:20:40.594Z,0
2018-12-14T17:24:08.505Z,0
2018-12-14T17:27:36.399Z,0
2018-12-14T17:31:05.269Z,0
2018-12-14T17:34:33.158Z,0
2018-12-14T17:38:01.050Z,0
2018-12-14T17:41:28.927Z,0
2018-12-14T17:44:56.825Z,0
2018-12-14T17:48:24.715Z,0
2018-12-14T17:51:52.608Z,0
2018-12-14T17:55:20.481Z,0
2018-12-14T17:58:48.382Z,0
2018-12-14T18:02:16.269Z,0
2018-12-14T18:05:44.202Z,0
2018-12-14T18:09:12.097Z,0
2018-12-14T18:12:39.992Z,0
2018-12-14T18:16:07.865Z,0
2018-12-14T18:19:35.756Z,0
2018-12-14T18:23:03.655Z,0
2018-12-14T18:26:31.571Z,0
2018-12-14T18:29:59.524Z,0
2018-12-14T18:33:27.433Z,0
2018-12-14T18:36:56.610Z,0
2018-12-14T18:40:24.583Z,0
2018-12-14T18:43:52.512Z,0
2018-12-14T18:47:20.439Z,0
2018-12-14T18:50:48.375Z,0
2018-12-14T18:54:16.257Z,0
2018-12-14T18:57:44.142Z,0
2018-12-14T19:01:12.778Z,0
2018-12-14T19:04:40.778Z,0
2018-12-14T19:08:08.675Z,0
2018-12-14T19:11:36.595Z,0
2018-12-14T19:15:04.487Z,0
2018-12-14T19:18:32.375Z,0
2018-12-14T19:22:00.265Z,0
2018-12-14T19:25:28.169Z,0
2018-12-14T19:28:56.060Z,0
2018-12-14T19:32:25.077Z,0
2018-12-14T19:35:53.463Z,0
2018-12-14T19:39:21.719Z,0
2018-12-14T19:42:49.913Z,0
2018-12-14T19:46:18.911Z,0
2018-12-14T19:49:47.916Z,0
2018-12-14T19:53:15.785Z,0
2018-12-14T19:56:43.727Z,0
2018-12-14T20:00:11.613Z,0
2018-12-14T20:03:39.490Z,0
2018-12-14T20:07:08.452Z,0
2018-12-14T20:10:36.532Z,0
2018-12-14T20:14:05.775Z,0
2018-12-14T20:17:33.995Z,0
2018-12-14T20:21:01.962Z,0
2018-12-14T20:24:30.032Z,0
2018-12-14T20:27:58.182Z,0
2018-12-14T20:31:26.318Z,0
2018-12-14T20:34:54.405Z,0
2018-12-14T20:38:22.465Z,0
2018-12-14T20:41:50.434Z,0
2018-12-14T20:45:19.431Z,0
2018-12-14T20:48:47.401Z,0
2018-12-14T20:52:15.458Z,0
2018-12-14T20:55:43.535Z,0
2018-12-14T20:59:11.580Z,0
2018-12-14T21:02:39.585Z,0
2018-12-14T21:06:09.354Z,0
2018-12-14T21:09:37.310Z,0
2018-12-14T21:13:05.307Z,0
2018-12-14T21:16:33.274Z,0
2018-12-14T21:20:01.389Z,0
2018-12-14T21:23:29.586Z,0
2018-12-14T21:26:57.648Z,0
2018-12-14T21:30:33.330Z,0
2018-12-14T21:34:05.110Z,0
2018-12-14T21:37:33.044Z,0
2018-12-14T21:41:01.095Z,0
2018-12-14T21:44:29.126Z,0
2018-12-14T21:47:57.727Z,0
2018-12-14T21:51:25.775Z,0
2018-12-14T21:54:53.665Z,0
2018-12-14T21:58:22.739Z,0
2018-12-14T22:01:50.826Z,0
2018-12-14T22:05:18.854Z,0
2018-12-14T22:08:46.876Z,0
2018-12-14T22:12:14.804Z,0
2018-12-14T22:15:42.715Z,0
2018-12-14T22:19:11.616Z,0
2018-12-14T22:22:39.526Z,0
2018-12-14T22:26:07.466Z,0
2018-12-14T22:29:35.408Z,0
2018-12-14T22:33:03.445Z,0
2018-12-14T22:36:31.359Z,0
2018-12-14T22:39:59.308Z,0
2018-12-14T22:43:27.255Z,0
2018-12-14T22:46:55.186Z,0
2018-12-14T22:50:23.144Z,0
2018-12-14T22:53:51.057Z,0
2018-12-14T22:57:19.020Z,0
2018-12-14T23:00:46.931Z,0
2018-12-14T23:04:14.885Z,0
2018-12-14T23:07:42.904Z,0
2018-12-14T23:11:10.857Z,0
2018-12-14T23:14:38.868Z,0
2018-12-14T23:18:06.812Z,0
2018-12-14T23:21:34.758Z,0
2018-12-14T23:25:02.623Z,0
2018-12-14T23:28:30.876Z,0
2018-12-14T23:31:58.761Z,0
2018-12-14T23:35:26.632Z,0
2018-12-14T23:38:54.517Z,0
2018-12-14T23:42:22.418Z,0
2018-12-14T23:45:50.284Z,0
2018-12-14T23:49:19.162Z,0
2018-12-14T23:52:47.046Z,0
2018-12-14T23:56:15.919Z,0
2018-12-14T23:59:43.789Z,0
